createdAt,value
2022-10-18T00:00:04.899Z,92.77
2022-10-18T00:01:04.907Z,92.63
2022-10-18T00:02:04.961Z,92.67
2022-10-18T00:03:04.852Z,92.46
2022-10-18T00:04:04.844Z,92.46
2022-10-18T00:05:04.825Z,92.46
2022-10-18T00:06:04.817Z,92.77
2022-10-18T00:07:04.810Z,92.67
2022-10-18T00:08:04.794Z,92.42
2022-10-18T00:09:04.783Z,92.16
2022-10-18T00:10:04.762Z,92.42
2022-10-18T00:11:04.743Z,92.46
2022-10-18T00:12:04.826Z,92.46
2022-10-18T00:13:04.723Z,92.36
2022-10-18T00:14:04.706Z,92.46
2022-10-18T00:15:04.695Z,92.57
2022-10-18T00:16:04.682Z,92.46
2022-10-18T00:17:04.662Z,92.67
2022-10-18T00:18:04.652Z,92.77
2022-10-18T00:19:04.642Z,92.77
2022-10-18T00:20:04.629Z,92.77
2022-10-18T00:21:04.610Z,92.46
2022-10-18T00:22:04.600Z,92.46
2022-10-18T00:23:04.581Z,92.67
2022-10-18T00:24:04.569Z,92.67
2022-10-18T00:25:04.548Z,92.67
2022-10-18T00:26:04.540Z,92.57
2022-10-18T00:27:04.526Z,92.57
2022-10-18T00:28:04.541Z,92.67
2022-10-18T00:29:04.504Z,92.67
2022-10-18T00:30:04.493Z,92.71
2022-10-18T00:31:04.476Z,92.67
2022-10-18T00:32:04.464Z,92.77
2022-10-18T00:33:04.446Z,92.71
2022-10-18T00:34:04.436Z,92.67
2022-10-18T00:35:04.672Z,92.91
2022-10-18T00:36:04.403Z,92.97
2022-10-18T00:37:04.384Z,93.12
2022-10-18T00:38:04.376Z,93.02
2022-10-18T00:39:04.360Z,92.81
2022-10-18T00:40:04.356Z,92.81
2022-10-18T00:41:04.332Z,92.91
2022-10-18T00:42:04.322Z,92.61
2022-10-18T00:43:04.305Z,92.50
2022-10-18T00:44:04.319Z,92.41
2022-10-18T00:45:04.282Z,92.20
2022-10-18T00:46:04.272Z,92.24
2022-10-18T00:47:04.255Z,92.20
2022-10-18T00:48:04.344Z,92.30
2022-10-18T00:49:04.230Z,92.20
2022-10-18T00:50:04.215Z,91.89
2022-10-18T00:51:04.203Z,91.59
2022-10-18T00:52:04.186Z,91.89
2022-10-18T00:53:04.167Z,92.00
2022-10-18T00:54:04.158Z,92.00
2022-10-18T00:55:04.146Z,92.00
2022-10-18T00:56:04.137Z,92.10
2022-10-18T00:57:04.122Z,92.10
2022-10-18T00:58:04.116Z,92.20
2022-10-18T00:59:04.299Z,92.30
2022-10-18T01:00:04.619Z,92.61
2022-10-18T01:01:04.059Z,92.61
2022-10-18T01:02:04.112Z,92.30
2022-10-18T01:03:04.031Z,92.30
2022-10-18T01:04:04.018Z,92.30
2022-10-18T01:05:04.006Z,92.50
2022-10-18T01:06:03.994Z,92.61
2022-10-18T01:07:03.985Z,92.30
2022-10-18T01:08:03.975Z,92.41
2022-10-18T01:09:03.954Z,92.30
2022-10-18T01:10:03.943Z,92.30
2022-10-18T01:11:03.923Z,92.30
2022-10-18T01:12:03.916Z,92.10
2022-10-18T01:13:03.899Z,92.04
2022-10-18T01:14:03.889Z,92.00
2022-10-18T01:15:03.872Z,92.10
2022-10-18T01:16:03.880Z,92.30
2022-10-18T01:17:03.839Z,92.30
2022-10-18T01:18:03.835Z,92.20
2022-10-18T01:19:03.814Z,92.71
2022-10-18T01:20:03.802Z,92.61
2022-10-18T01:21:03.785Z,92.61
2022-10-18T01:22:03.778Z,92.71
2022-10-18T01:23:03.757Z,92.71
2022-10-18T01:24:03.755Z,92.61
2022-10-18T01:25:03.754Z,92.50
2022-10-18T01:26:03.723Z,92.61
2022-10-18T01:27:03.713Z,92.71
2022-10-18T01:28:03.690Z,92.77
2022-10-18T01:29:03.752Z,92.87
2022-10-18T01:30:03.666Z,92.87
2022-10-18T01:31:03.669Z,92.67
2022-10-18T01:32:03.663Z,92.97
2022-10-18T01:33:03.625Z,93.02
2022-10-18T01:34:03.618Z,92.77
2022-10-18T01:35:03.605Z,92.67
2022-10-18T01:36:03.591Z,92.67
2022-10-18T01:37:03.574Z,92.71
2022-10-18T01:38:03.560Z,92.67
2022-10-18T01:39:03.543Z,92.46
2022-10-18T01:40:03.730Z,92.46
2022-10-18T01:41:03.510Z,92.46
2022-10-18T01:42:03.501Z,92.50
2022-10-18T01:43:03.556Z,92.46
2022-10-18T01:44:03.480Z,92.36
2022-10-18T01:45:03.475Z,92.61
2022-10-18T01:46:03.446Z,92.36
2022-10-18T01:47:03.436Z,92.36
2022-10-18T01:48:03.445Z,92.46
2022-10-18T01:49:03.406Z,93.07
2022-10-18T01:50:03.397Z,92.87
2022-10-18T01:51:03.379Z,92.87
2022-10-18T01:52:03.514Z,93.07
2022-10-18T01:53:03.355Z,92.87
2022-10-18T01:54:03.343Z,92.97
2022-10-18T01:55:03.326Z,92.97
2022-10-18T01:56:03.309Z,92.97
2022-10-18T01:57:03.292Z,92.97
2022-10-18T01:58:03.283Z,92.97
2022-10-18T01:59:03.266Z,92.67
2022-10-18T02:00:03.268Z,92.67
2022-10-18T02:01:03.294Z,92.87
2022-10-18T02:02:03.230Z,92.87
2022-10-18T02:03:03.218Z,93.18
2022-10-18T02:04:03.224Z,93.07
2022-10-18T02:05:03.185Z,93.03
2022-10-18T02:06:03.175Z,92.87
2022-10-18T02:07:03.157Z,92.87
2022-10-18T02:08:12.512Z,92.97
2022-10-18T02:09:04.157Z,93.07
2022-10-18T02:10:03.182Z,93.07
2022-10-18T02:11:03.108Z,92.97
2022-10-18T02:12:03.101Z,92.87
2022-10-18T02:13:03.080Z,92.77
2022-10-18T02:14:03.068Z,92.67
2022-10-18T02:15:03.053Z,92.77
2022-10-18T02:16:03.044Z,92.83
2022-10-18T02:17:03.035Z,92.57
2022-10-18T02:18:03.019Z,92.72
2022-10-18T02:19:03.002Z,92.87
2022-10-18T02:20:03.009Z,92.77
2022-10-18T02:21:02.975Z,92.63
2022-10-18T02:22:02.958Z,92.67
2022-10-18T02:23:02.938Z,92.63
2022-10-18T02:24:02.929Z,92.83
2022-10-18T02:25:02.916Z,92.77
2022-10-18T02:26:02.904Z,92.83
2022-10-18T02:27:02.884Z,92.83
2022-10-18T02:28:02.880Z,92.77
2022-10-18T02:29:02.872Z,92.72
2022-10-18T02:30:02.859Z,92.77
2022-10-18T02:31:02.839Z,92.57
2022-10-18T02:32:02.827Z,92.77
2022-10-18T02:33:02.816Z,92.77
2022-10-18T02:34:02.805Z,92.63
2022-10-18T02:35:02.791Z,92.77
2022-10-18T02:36:02.786Z,92.72
2022-10-18T02:37:02.758Z,92.46
2022-10-18T02:38:02.740Z,92.67
2022-10-18T02:39:02.725Z,92.67
2022-10-18T02:40:02.710Z,92.57
2022-10-18T02:41:02.696Z,92.57
2022-10-18T02:42:02.687Z,92.36
2022-10-18T02:43:02.674Z,92.05
2022-10-18T02:44:02.666Z,92.26
2022-10-18T02:45:03.049Z,92.26
2022-10-18T02:46:02.638Z,92.05
2022-10-18T02:47:02.629Z,92.05
2022-10-18T02:48:02.607Z,92.26
2022-10-18T02:49:02.594Z,92.16
2022-10-18T02:50:02.577Z,92.16
2022-10-18T02:51:02.570Z,92.26
2022-10-18T02:52:02.572Z,92.32
2022-10-18T02:53:02.535Z,92.26
2022-10-18T02:54:02.525Z,92.16
2022-10-18T02:55:02.607Z,92.11
2022-10-18T02:56:02.495Z,92.22
2022-10-18T02:57:02.479Z,92.22
2022-10-18T02:58:02.472Z,92.11
2022-10-18T02:59:02.451Z,92.11
2022-10-18T03:00:02.451Z,92.42
2022-10-18T03:01:02.436Z,92.18
2022-10-18T03:02:02.418Z,92.38
2022-10-18T03:03:02.409Z,92.58
2022-10-18T03:04:02.393Z,92.52
2022-10-18T03:05:02.383Z,92.52
2022-10-18T03:06:02.360Z,92.42
2022-10-18T03:07:02.345Z,92.42
2022-10-18T03:08:02.362Z,92.42
2022-10-18T03:09:02.322Z,92.52
2022-10-18T03:10:02.311Z,92.52
2022-10-18T03:11:02.295Z,92.48
2022-10-18T03:12:02.285Z,92.48
2022-10-18T03:13:02.273Z,92.58
2022-10-18T03:14:02.260Z,92.58
2022-10-18T03:15:02.245Z,92.38
2022-10-18T03:16:02.230Z,92.48
2022-10-18T03:17:02.210Z,92.48
2022-10-18T03:18:02.203Z,92.38
2022-10-18T03:19:02.184Z,92.48
2022-10-18T03:20:02.179Z,92.58
2022-10-18T03:21:02.160Z,92.63
2022-10-18T03:22:02.154Z,92.58
2022-10-18T03:23:02.132Z,92.68
2022-10-18T03:24:02.146Z,92.79
2022-10-18T03:25:02.115Z,92.68
2022-10-18T03:26:02.096Z,92.58
2022-10-18T03:27:02.080Z,92.48
2022-10-18T03:28:02.076Z,92.68
2022-10-18T03:29:02.212Z,92.79
2022-10-18T03:30:02.045Z,92.58
2022-10-18T03:31:02.030Z,92.58
2022-10-18T03:32:02.013Z,92.68
2022-10-18T03:33:01.997Z,92.68
2022-10-18T03:34:01.991Z,92.79
2022-10-18T03:35:01.982Z,92.79
2022-10-18T03:36:01.964Z,92.54
2022-10-18T03:37:04.698Z,92.68
2022-10-18T03:38:01.964Z,92.74
2022-10-18T03:39:01.918Z,92.64
2022-10-18T03:40:01.928Z,92.79
2022-10-18T03:41:01.890Z,92.74
2022-10-18T03:42:01.893Z,92.79
2022-10-18T03:43:01.861Z,92.74
2022-10-18T03:44:01.851Z,92.84
2022-10-18T03:45:01.867Z,92.48
2022-10-18T03:46:01.826Z,92.74
2022-10-18T03:47:01.807Z,92.64
2022-10-18T03:48:01.800Z,92.74
2022-10-18T03:49:01.787Z,92.64
2022-10-18T03:50:01.776Z,92.64
2022-10-18T03:51:01.764Z,92.68
2022-10-18T03:52:01.749Z,92.64
2022-10-18T03:53:01.734Z,92.79
2022-10-18T03:54:01.727Z,92.68
2022-10-18T03:55:01.709Z,92.23
2022-10-18T03:56:01.713Z,92.18
2022-10-18T03:57:01.675Z,92.38
2022-10-18T03:58:01.667Z,92.54
2022-10-18T03:59:01.649Z,92.58
2022-10-18T04:00:01.640Z,92.58
2022-10-18T04:01:01.627Z,92.48
2022-10-18T04:02:01.674Z,92.48
2022-10-18T04:03:01.605Z,92.58
2022-10-18T04:04:01.592Z,92.48
2022-10-18T04:05:01.576Z,92.18
2022-10-18T04:06:01.563Z,92.27
2022-10-18T04:07:01.545Z,92.18
2022-10-18T04:08:01.528Z,92.07
2022-10-18T04:09:03.238Z,92.18
2022-10-18T04:10:01.514Z,92.38
2022-10-18T04:11:01.487Z,92.27
2022-10-18T04:12:01.504Z,92.48
2022-10-18T04:13:01.467Z,92.27
2022-10-18T04:14:01.465Z,92.38
2022-10-18T04:15:01.439Z,92.18
2022-10-18T04:16:01.431Z,92.18
2022-10-18T04:17:01.417Z,92.48
2022-10-18T04:18:01.404Z,92.89
2022-10-18T04:19:01.385Z,92.89
2022-10-18T04:20:01.376Z,92.38
2022-10-18T04:21:01.355Z,92.52
2022-10-18T04:22:01.350Z,92.52
2022-10-18T04:23:01.326Z,92.52
2022-10-18T04:24:01.316Z,92.32
2022-10-18T04:25:01.305Z,92.32
2022-10-18T04:26:01.293Z,92.42
2022-10-18T04:27:01.276Z,92.42
2022-10-18T04:28:06.479Z,92.32
2022-10-18T04:29:01.352Z,92.52
2022-10-18T04:30:01.240Z,92.46
2022-10-18T04:31:01.246Z,92.22
2022-10-18T04:32:01.213Z,92.22
2022-10-18T04:33:01.201Z,92.11
2022-10-18T04:34:01.186Z,92.26
2022-10-18T04:35:01.168Z,92.26
2022-10-18T04:36:01.157Z,92.26
2022-10-18T04:37:01.138Z,92.26
2022-10-18T04:38:01.129Z,92.16
2022-10-18T04:39:01.109Z,92.26
2022-10-18T04:40:01.104Z,92.20
2022-10-18T04:41:01.087Z,92.10
2022-10-18T04:42:01.078Z,92.16
2022-10-18T04:43:01.061Z,92.05
2022-10-18T04:44:01.052Z,91.89
2022-10-18T04:45:01.031Z,91.75
2022-10-18T04:46:01.020Z,91.79
2022-10-18T04:47:01.022Z,91.65
2022-10-18T04:48:00.995Z,91.75
2022-10-18T04:49:00.975Z,91.79
2022-10-18T04:50:00.966Z,91.75
2022-10-18T04:51:00.951Z,91.79
2022-10-18T04:52:00.946Z,91.75
2022-10-18T04:53:00.926Z,91.65
2022-10-18T04:54:00.919Z,91.75
2022-10-18T04:55:00.897Z,91.75
2022-10-18T04:56:00.887Z,91.75
2022-10-18T04:57:00.868Z,91.75
2022-10-18T04:58:00.860Z,91.75
2022-10-18T04:59:00.845Z,91.65
2022-10-18T05:00:00.845Z,91.89
2022-10-18T05:01:00.811Z,91.75
2022-10-18T05:02:00.893Z,91.65
2022-10-18T05:03:00.808Z,91.71
2022-10-18T05:04:00.774Z,91.75
2022-10-18T05:05:00.757Z,91.81
2022-10-18T05:06:02.555Z,91.85
2022-10-18T05:07:00.784Z,91.65
2022-10-18T05:08:00.723Z,91.85
2022-10-18T05:09:00.714Z,91.85
2022-10-18T05:10:00.696Z,91.96
2022-10-18T05:11:00.750Z,91.85
2022-10-18T05:12:00.690Z,91.85
2022-10-18T05:13:00.650Z,91.81
2022-10-18T05:14:00.635Z,91.85
2022-10-18T05:15:00.620Z,91.85
2022-10-18T05:16:00.612Z,91.75
2022-10-18T05:17:00.628Z,91.75
2022-10-18T05:18:00.588Z,91.81
2022-10-18T05:19:00.591Z,91.61
2022-10-18T05:20:00.643Z,91.75
2022-10-18T05:21:00.543Z,91.75
2022-10-18T05:22:00.532Z,91.75
2022-10-18T05:23:00.515Z,91.85
2022-10-18T05:24:00.507Z,91.75
2022-10-18T05:25:00.486Z,91.81
2022-10-18T05:26:00.476Z,91.85
2022-10-18T05:27:00.461Z,91.91
2022-10-18T05:28:06.259Z,91.85
2022-10-18T05:29:01.628Z,91.75
2022-10-18T05:30:04.560Z,91.75
2022-10-18T05:31:00.407Z,91.75
2022-10-18T05:32:00.448Z,91.81
2022-10-18T05:33:00.393Z,92.05
2022-10-18T05:34:00.364Z,92.16
2022-10-18T05:35:00.376Z,92.05
2022-10-18T05:36:00.354Z,92.05
2022-10-18T05:37:00.324Z,91.96
2022-10-18T05:38:00.312Z,91.85
2022-10-18T05:39:04.018Z,91.96
2022-10-18T05:40:00.289Z,91.85
2022-10-18T05:41:00.267Z,91.96
2022-10-18T05:42:00.255Z,91.89
2022-10-18T05:43:00.242Z,91.89
2022-10-18T05:44:00.234Z,91.79
2022-10-18T05:45:00.227Z,91.79
2022-10-18T05:46:00.205Z,91.69
2022-10-18T05:47:00.197Z,91.79
2022-10-18T05:48:00.176Z,91.79
2022-10-18T05:49:00.156Z,91.79
2022-10-18T05:50:00.154Z,91.69
2022-10-18T05:51:00.148Z,91.69
2022-10-18T05:52:00.122Z,91.69
2022-10-18T05:53:11.860Z,91.69
2022-10-18T05:54:01.118Z,91.69
2022-10-18T05:55:00.081Z,91.69
2022-10-18T05:56:00.072Z,91.79
2022-10-18T05:57:00.047Z,91.69
2022-10-18T05:58:00.044Z,91.89
2022-10-18T05:59:00.026Z,91.79
2022-10-18T06:00:00.014Z,91.79
2022-10-18T06:01:00.246Z,91.69
2022-10-18T06:01:59.981Z,91.69
2022-10-18T06:03:00.536Z,91.79
2022-10-18T06:03:59.957Z,91.79
2022-10-18T06:04:59.939Z,91.69
2022-10-18T06:05:59.931Z,91.59
2022-10-18T06:06:59.935Z,91.59
2022-10-18T06:07:59.901Z,91.55
2022-10-18T06:08:59.892Z,91.59
2022-10-18T06:09:59.880Z,91.44
2022-10-18T06:10:59.880Z,91.55
2022-10-18T06:11:59.846Z,91.85
2022-10-18T06:12:59.830Z,91.75
2022-10-18T06:13:59.816Z,91.55
2022-10-18T06:14:59.802Z,91.75
2022-10-18T06:15:59.795Z,91.71
2022-10-18T06:16:59.778Z,91.66
2022-10-18T06:17:59.769Z,91.77
2022-10-18T06:18:59.749Z,91.88
2022-10-18T06:19:59.736Z,91.99
2022-10-18T06:20:59.716Z,91.88
2022-10-18T06:21:59.711Z,92.19
2022-10-18T06:22:59.725Z,92.19
2022-10-18T06:23:59.690Z,92.60
2022-10-18T06:24:59.669Z,92.40
2022-10-18T06:25:59.659Z,92.49
2022-10-18T06:26:59.688Z,92.71
2022-10-18T06:27:59.634Z,92.87
2022-10-18T06:28:59.695Z,94.05
2022-10-18T06:29:59.600Z,93.60
2022-10-18T06:30:59.584Z,94.17
2022-10-18T06:31:59.577Z,93.30
2022-10-18T06:32:59.563Z,93.67
2022-10-18T06:33:59.551Z,93.52
2022-10-18T06:34:59.528Z,93.38
2022-10-18T06:35:59.520Z,92.42
2022-10-18T06:36:59.506Z,92.48
2022-10-18T06:37:59.496Z,91.73
2022-10-18T06:38:59.498Z,90.98
2022-10-18T06:39:59.463Z,90.03
2022-10-18T06:40:59.450Z,89.32
2022-10-18T06:41:59.440Z,89.62
2022-10-18T06:43:00.780Z,88.81
2022-10-18T06:44:00.438Z,90.27
2022-10-18T06:44:59.396Z,90.82
2022-10-18T06:45:59.385Z,91.06
2022-10-18T06:46:59.367Z,91.61
2022-10-18T06:47:59.353Z,91.51
2022-10-18T06:48:59.345Z,91.51
2022-10-18T06:49:59.324Z,91.86
2022-10-18T06:50:59.328Z,91.80
2022-10-18T06:51:59.304Z,92.21
2022-10-18T06:52:59.291Z,92.41
2022-10-18T06:54:13.284Z,92.25
2022-10-18T06:55:00.311Z,92.55
2022-10-18T06:55:59.252Z,92.65
2022-10-18T06:56:59.242Z,92.80
2022-10-18T06:57:59.221Z,92.76
2022-10-18T06:59:59.229Z,92.86
2022-10-18T07:00:59.177Z,92.96
2022-10-18T07:01:59.214Z,92.90
2022-10-18T07:02:59.152Z,92.70
2022-10-18T07:03:59.135Z,93.00
2022-10-18T07:04:59.126Z,92.90
2022-10-18T07:05:59.111Z,92.90
2022-10-18T07:06:59.100Z,92.80
2022-10-18T07:07:59.085Z,92.94
2022-10-18T07:08:59.076Z,93.10
2022-10-18T07:09:59.062Z,92.90
2022-10-18T07:10:59.082Z,93.05
2022-10-18T07:11:59.030Z,92.84
2022-10-18T07:13:13.554Z,93.05
2022-10-18T07:14:00.030Z,93.25
2022-10-18T07:14:58.994Z,93.15
2022-10-18T07:15:58.971Z,93.15
2022-10-18T07:16:58.959Z,93.05
2022-10-18T07:17:58.944Z,93.15
2022-10-18T07:18:58.934Z,93.05
2022-10-18T07:19:58.923Z,93.15
2022-10-18T07:20:58.912Z,93.15
2022-10-18T07:21:58.894Z,93.25
2022-10-18T07:22:58.883Z,93.25
2022-10-18T07:23:58.865Z,93.00
2022-10-18T07:24:58.850Z,93.25
2022-10-18T07:25:58.837Z,93.00
2022-10-18T07:26:58.845Z,93.05
2022-10-18T07:27:58.808Z,93.05
2022-10-18T07:28:59.005Z,93.10
2022-10-18T07:29:58.781Z,93.10
2022-10-18T07:31:02.446Z,93.05
2022-10-18T07:31:59.780Z,93.21
2022-10-18T07:32:58.750Z,92.90
2022-10-18T07:33:58.732Z,93.10
2022-10-18T07:34:58.769Z,93.00
2022-10-18T07:35:58.702Z,93.10
2022-10-18T07:36:58.695Z,93.06
2022-10-18T07:37:58.679Z,93.00
2022-10-18T07:38:58.673Z,92.90
2022-10-18T07:39:58.645Z,92.96
2022-10-18T07:40:58.633Z,93.16
2022-10-18T07:41:58.618Z,93.06
2022-10-18T07:43:01.627Z,92.96
2022-10-18T07:43:58.592Z,92.91
2022-10-18T07:44:58.579Z,92.76
2022-10-18T07:45:58.564Z,92.82
2022-10-18T07:46:58.554Z,92.82
2022-10-18T07:47:58.540Z,92.61
2022-10-18T07:48:58.528Z,92.91
2022-10-18T07:49:58.512Z,92.71
2022-10-18T07:50:58.502Z,92.51
2022-10-18T07:51:58.480Z,92.51
2022-10-18T07:52:58.473Z,92.51
2022-10-18T07:53:58.455Z,92.61
2022-10-18T07:54:58.452Z,92.51
2022-10-18T07:55:58.431Z,92.47
2022-10-18T07:56:58.421Z,92.67
2022-10-18T07:57:58.404Z,92.47
2022-10-18T07:58:58.414Z,92.26
2022-10-18T07:59:58.376Z,92.36
2022-10-18T08:00:58.566Z,92.12
2022-10-18T08:01:58.423Z,91.92
2022-10-18T08:02:58.344Z,92.02
2022-10-18T08:04:01.038Z,92.22
2022-10-18T08:04:58.308Z,91.82
2022-10-18T08:05:58.291Z,91.87
2022-10-18T08:06:58.284Z,92.08
2022-10-18T08:07:58.266Z,92.18
2022-10-18T08:08:58.259Z,91.97
2022-10-18T08:09:58.240Z,92.03
2022-10-18T08:10:58.235Z,92.03
2022-10-18T08:11:58.226Z,91.78
2022-10-18T08:12:58.220Z,91.58
2022-10-18T08:13:58.191Z,91.14
2022-10-18T08:14:58.200Z,91.03
2022-10-18T08:15:58.164Z,90.63
2022-10-18T08:16:58.152Z,90.59
2022-10-18T08:17:58.134Z,89.88
2022-10-18T08:18:58.129Z,89.88
2022-10-18T08:20:11.503Z,90.08
2022-10-18T08:20:59.320Z,90.19
2022-10-18T08:21:58.078Z,90.08
2022-10-18T08:23:00.448Z,89.88
2022-10-18T08:23:58.054Z,90.34
2022-10-18T08:24:58.044Z,89.84
2022-10-18T08:25:58.029Z,90.14
2022-10-18T08:26:58.015Z,89.54
2022-10-18T08:27:57.993Z,90.24
2022-10-18T08:29:17.705Z,89.48
2022-10-18T08:29:59.174Z,89.64
2022-10-18T08:30:57.979Z,89.68
2022-10-18T08:31:57.946Z,89.84
2022-10-18T08:32:57.937Z,89.84
2022-10-18T08:33:57.912Z,89.74
2022-10-18T08:34:57.904Z,89.54
2022-10-18T08:35:57.892Z,89.54
2022-10-18T08:36:57.882Z,89.54
2022-10-18T08:37:57.863Z,89.64
2022-10-18T08:38:57.891Z,89.50
2022-10-18T08:39:57.836Z,89.50
2022-10-18T08:40:57.823Z,89.29
2022-10-18T08:41:57.812Z,88.99
2022-10-18T08:42:57.804Z,89.25
2022-10-18T08:43:57.783Z,89.09
2022-10-18T08:44:57.769Z,88.85
2022-10-18T08:45:57.753Z,88.75
2022-10-18T08:46:57.777Z,88.54
2022-10-18T08:47:57.730Z,88.65
2022-10-18T08:48:57.730Z,88.95
2022-10-18T08:49:57.696Z,89.19
2022-10-18T08:50:57.693Z,88.75
2022-10-18T08:51:57.675Z,88.95
2022-10-18T08:52:57.673Z,89.05
2022-10-18T08:53:57.649Z,89.31
2022-10-18T08:54:57.639Z,88.66
2022-10-18T08:55:57.621Z,88.56
2022-10-18T08:56:57.611Z,87.98
2022-10-18T08:57:57.592Z,87.04
2022-10-18T08:58:57.585Z,85.50
2022-10-18T08:59:57.567Z,85.16
2022-10-18T09:00:57.557Z,83.85
2022-10-18T09:01:57.687Z,84.81
2022-10-18T09:02:57.580Z,84.67
2022-10-18T09:03:57.513Z,82.57
2022-10-18T09:04:57.505Z,82.60
2022-10-18T09:05:57.487Z,83.18
2022-10-18T09:06:57.476Z,82.68
2022-10-18T09:07:57.454Z,84.03
2022-10-18T09:08:57.453Z,84.09
2022-10-18T09:09:57.431Z,84.80
2022-10-18T09:12:01.023Z,84.29
2022-10-18T09:12:57.388Z,84.49
2022-10-18T09:13:57.370Z,84.19
2022-10-18T09:14:57.364Z,83.79
2022-10-18T09:15:57.352Z,84.13
2022-10-18T09:16:57.340Z,84.94
2022-10-18T09:17:57.322Z,84.80
2022-10-18T09:18:57.338Z,84.94
2022-10-18T09:19:57.377Z,85.10
2022-10-18T09:20:57.279Z,84.83
2022-10-18T09:21:57.271Z,84.39
2022-10-18T09:22:57.256Z,84.59
2022-10-18T09:23:57.239Z,84.59
2022-10-18T09:24:57.234Z,83.99
2022-10-18T09:25:57.217Z,85.14
2022-10-18T09:26:57.208Z,85.33
2022-10-18T09:27:57.183Z,85.19
2022-10-18T09:28:57.330Z,85.19
2022-10-18T09:29:57.156Z,85.30
2022-10-18T09:30:59.463Z,84.39
2022-10-18T09:31:57.136Z,84.59
2022-10-18T09:32:57.126Z,84.69
2022-10-18T09:33:57.105Z,83.69
2022-10-18T09:34:57.115Z,84.99
2022-10-18T09:35:57.078Z,85.16
2022-10-18T09:36:57.068Z,83.95
2022-10-18T09:37:57.048Z,85.19
2022-10-18T09:38:59.877Z,85.30
2022-10-18T09:39:57.018Z,85.39
2022-10-18T09:40:57.011Z,84.95
2022-10-18T09:41:56.991Z,84.89
2022-10-18T09:42:56.981Z,85.16
2022-10-18T09:43:56.968Z,84.65
2022-10-18T09:44:56.957Z,85.46
2022-10-18T09:45:56.935Z,85.46
2022-10-18T09:46:56.932Z,85.05
2022-10-18T09:47:56.919Z,85.10
2022-10-18T09:48:56.910Z,84.75
2022-10-18T09:49:56.885Z,85.56
2022-10-18T09:50:56.898Z,85.86
2022-10-18T09:51:56.859Z,85.96
2022-10-18T09:52:56.847Z,85.52
2022-10-18T09:53:56.830Z,84.75
2022-10-18T09:54:56.819Z,84.97
2022-10-18T09:55:56.800Z,84.67
2022-10-18T09:57:56.771Z,83.57
2022-10-18T09:58:56.766Z,84.77
2022-10-18T09:59:56.747Z,84.07
2022-10-18T10:00:56.740Z,83.63
2022-10-18T10:01:56.720Z,83.73
2022-10-18T10:02:56.714Z,84.03
2022-10-18T10:03:56.695Z,83.53
2022-10-18T10:04:56.693Z,83.49
2022-10-18T10:05:56.663Z,83.49
2022-10-18T10:06:57.026Z,83.19
2022-10-18T10:07:56.638Z,83.05
2022-10-18T10:08:56.631Z,82.15
2022-10-18T10:09:56.616Z,81.21
2022-10-18T10:10:56.603Z,82.71
2022-10-18T10:11:56.581Z,82.01
2022-10-18T10:12:56.576Z,81.47
2022-10-18T10:13:56.563Z,80.47
2022-10-18T10:14:56.543Z,81.43
2022-10-18T10:15:56.529Z,80.13
2022-10-18T10:16:56.517Z,79.47
2022-10-18T10:17:56.554Z,80.07
2022-10-18T10:18:56.495Z,80.07
2022-10-18T10:19:56.480Z,80.23
2022-10-18T10:20:56.521Z,79.83
2022-10-18T10:21:56.452Z,79.23
2022-10-18T10:22:56.474Z,78.73
2022-10-18T10:23:56.421Z,78.93
2022-10-18T10:24:56.414Z,79.86
2022-10-18T10:25:56.394Z,79.97
2022-10-18T10:26:56.384Z,80.97
2022-10-18T10:27:56.375Z,80.73
2022-10-18T10:28:56.488Z,81.03
2022-10-18T10:29:56.364Z,79.29
2022-10-18T10:30:56.339Z,79.19
2022-10-18T10:31:56.324Z,78.09
2022-10-18T10:32:56.313Z,78.85
2022-10-18T10:33:56.292Z,77.42
2022-10-18T10:34:56.281Z,76.72
2022-10-18T10:35:56.262Z,76.52
2022-10-18T10:36:56.250Z,76.72
2022-10-18T10:37:56.239Z,75.72
2022-10-18T10:38:56.263Z,73.28
2022-10-18T10:40:17.368Z,73.88
2022-10-18T10:40:57.219Z,74.88
2022-10-18T10:41:56.183Z,75.45
2022-10-18T10:43:04.309Z,75.45
2022-10-18T10:43:57.188Z,74.35
2022-10-18T10:44:56.152Z,73.39
2022-10-18T10:45:56.131Z,73.05
2022-10-18T10:46:56.121Z,74.45
2022-10-18T10:47:56.105Z,74.25
2022-10-18T10:49:15.450Z,72.16
2022-10-18T10:49:57.110Z,73.82
2022-10-18T10:50:56.076Z,72.32
2022-10-18T10:52:08.210Z,74.41
2022-10-18T10:52:57.059Z,71.29
2022-10-18T10:53:56.026Z,73.38
2022-10-18T10:55:05.920Z,70.19
2022-10-18T10:55:57.027Z,70.09
2022-10-18T10:56:55.983Z,68.99
2022-10-18T10:57:55.970Z,70.75
2022-10-18T10:58:55.991Z,69.43
2022-10-18T10:59:55.950Z,68.86
2022-10-18T11:00:55.937Z,70.45
2022-10-18T11:01:55.923Z,69.23
2022-10-18T11:03:05.987Z,68.83
2022-10-18T11:03:56.980Z,69.23
2022-10-18T11:04:55.885Z,67.24
2022-10-18T11:05:55.876Z,69.13
2022-10-18T11:06:55.857Z,68.93
2022-10-18T11:07:55.849Z,69.82
2022-10-18T11:08:55.831Z,69.96
2022-10-18T11:09:55.817Z,68.46
2022-10-18T11:10:55.820Z,69.46
2022-10-18T11:11:55.792Z,68.70
2022-10-18T11:12:55.770Z,68.99
2022-10-18T11:14:07.224Z,67.17
2022-10-18T11:14:56.771Z,68.10
2022-10-18T11:15:55.741Z,63.83
2022-10-18T11:16:55.869Z,63.58
2022-10-18T11:17:55.736Z,60.72
2022-10-18T11:18:55.942Z,57.77
2022-10-18T11:19:55.686Z,57.22
2022-10-18T11:20:55.670Z,55.04
2022-10-18T11:21:55.659Z,54.52
2022-10-18T11:22:55.643Z,50.46
2022-10-18T11:23:55.633Z,50.93
2022-10-18T11:24:55.614Z,50.21
2022-10-18T11:25:55.606Z,50.19
2022-10-18T11:26:55.706Z,52.53
2022-10-18T11:27:55.597Z,54.88
2022-10-18T11:28:55.636Z,54.38
2022-10-18T11:29:55.549Z,53.57
2022-10-18T11:30:55.543Z,53.62
2022-10-18T11:31:55.533Z,55.53
2022-10-18T11:32:55.518Z,57.54
2022-10-18T11:34:10.963Z,58.01
2022-10-18T11:34:56.513Z,57.93
2022-10-18T11:35:58.160Z,58.81
2022-10-18T11:37:09.659Z,59.96
2022-10-18T11:37:56.468Z,61.94
2022-10-18T11:38:55.459Z,61.31
2022-10-18T11:39:55.429Z,62.56
2022-10-18T11:40:55.415Z,62.59
2022-10-18T11:41:55.407Z,60.19
2022-10-18T11:42:55.407Z,59.65
2022-10-18T11:44:02.667Z,56.37
2022-10-18T11:44:56.387Z,56.48
2022-10-18T11:45:55.352Z,53.52
2022-10-18T11:46:55.386Z,53.77
2022-10-18T11:47:55.985Z,51.79
2022-10-18T11:48:55.311Z,50.44
2022-10-18T11:49:55.297Z,49.77
2022-10-18T11:50:55.284Z,52.11
2022-10-18T11:52:07.826Z,51.30
2022-10-18T11:52:56.285Z,52.73
2022-10-18T11:53:55.249Z,54.49
2022-10-18T11:54:55.237Z,54.94
2022-10-18T11:55:55.220Z,56.65
2022-10-18T11:56:55.203Z,56.60
2022-10-18T11:57:55.196Z,57.03
2022-10-18T11:58:55.300Z,57.82
2022-10-18T11:59:55.173Z,57.85
2022-10-18T12:00:55.205Z,57.75
2022-10-18T12:01:55.145Z,57.72
2022-10-18T12:02:55.223Z,56.95
2022-10-18T12:03:55.114Z,57.13
2022-10-18T12:05:22.165Z,57.62
2022-10-18T12:05:56.122Z,57.79
2022-10-18T12:06:55.070Z,56.92
2022-10-18T12:07:55.065Z,53.99
2022-10-18T12:08:55.061Z,52.28
2022-10-18T12:09:55.126Z,49.13
2022-10-18T12:11:06.605Z,48.82
2022-10-18T12:11:56.114Z,48.49
2022-10-18T12:12:54.990Z,49.50
2022-10-18T12:13:54.984Z,48.19
2022-10-18T12:14:54.987Z,50.09
2022-10-18T12:15:54.962Z,48.39
2022-10-18T12:17:13.527Z,47.70
2022-10-18T12:17:56.392Z,48.71
2022-10-18T12:18:55.211Z,47.70
2022-10-18T12:19:54.908Z,49.48
2022-10-18T12:20:54.895Z,47.04
2022-10-18T12:21:54.883Z,46.70
2022-10-18T12:22:54.865Z,45.26
2022-10-18T12:23:54.992Z,45.67
2022-10-18T12:24:54.838Z,45.45
2022-10-18T12:25:54.834Z,47.48
2022-10-18T12:26:54.811Z,47.78
2022-10-18T12:27:54.855Z,47.80
2022-10-18T12:28:54.857Z,48.59
2022-10-18T12:29:54.792Z,50.02
2022-10-18T12:30:54.794Z,49.67
2022-10-18T12:31:54.761Z,50.68
2022-10-18T12:33:03.406Z,50.66
2022-10-18T12:33:55.753Z,49.10
2022-10-18T12:34:54.719Z,47.95
2022-10-18T12:35:54.702Z,46.70
2022-10-18T12:36:54.756Z,46.51
2022-10-18T12:37:54.678Z,43.57
2022-10-18T12:38:54.666Z,45.19
2022-10-18T12:40:09.856Z,43.48
2022-10-18T12:40:55.663Z,44.32
2022-10-18T12:41:54.627Z,41.49
2022-10-18T12:42:54.620Z,41.70
2022-10-18T12:43:54.611Z,42.19
2022-10-18T12:44:54.588Z,43.07
2022-10-18T12:45:54.579Z,41.68
2022-10-18T12:46:54.592Z,40.80
2022-10-18T12:47:54.549Z,40.19
2022-10-18T12:48:54.538Z,41.36
2022-10-18T12:49:54.527Z,40.27
2022-10-18T12:50:54.510Z,41.03
2022-10-18T12:51:54.510Z,39.86
2022-10-18T12:52:54.497Z,40.09
2022-10-18T12:53:54.482Z,42.72
2022-10-18T12:54:54.467Z,42.99